sensor_id;sensor_type;location;lat;lon;timestamp;temperature;humidity
10155;DHT22;5118;48.570;7.916;2023-12-20T00:00:03;5.20;99.90
10155;DHT22;5118;48.570;7.916;2023-12-20T00:02:34;5.20;99.90
10155;DHT22;5118;48.570;7.916;2023-12-20T00:05:04;5.20;99.90
10155;DHT22;5118;48.570;7.916;2023-12-20T00:07:34;5.20;99.90
10155;DHT22;5118;48.570;7.916;2023-12-20T00:10:02;5.20;99.90
10155;DHT22;5118;48.570;7.916;2023-12-20T00:12:31;5.10;99.90
10155;DHT22;5118;48.570;7.916;2023-12-20T00:14:59;5.20;99.90
10155;DHT22;5118;48.570;7.916;2023-12-20T00:17:28;5.20;99.90
10155;DHT22;5118;48.570;7.916;2023-12-20T00:19:56;5.20;99.90
10155;DHT22;5118;48.570;7.916;2023-12-20T00:22:25;5.20;99.90
10155;DHT22;5118;48.570;7.916;2023-12-20T00:24:55;5.20;99.90
10155;DHT22;5118;48.570;7.916;2023-12-20T00:27:23;5.20;99.90
10155;DHT22;5118;48.570;7.916;2023-12-20T00:29:52;5.20;99.90
10155;DHT22;5118;48.570;7.916;2023-12-20T00:32:20;5.20;99.90
10155;DHT22;5118;48.570;7.916;2023-12-20T00:34:49;5.20;99.90
10155;DHT22;5118;48.570;7.916;2023-12-20T00:37:17;5.30;99.90
10155;DHT22;5118;48.570;7.916;2023-12-20T00:39:46;5.30;99.90
10155;DHT22;5118;48.570;7.916;2023-12-20T00:42:15;5.30;99.90
10155;DHT22;5118;48.570;7.916;2023-12-20T00:44:47;5.30;99.90
10155;DHT22;5118;48.570;7.916;2023-12-20T00:47:15;5.30;99.90
10155;DHT22;5118;48.570;7.916;2023-12-20T00:49:44;5.30;99.90
10155;DHT22;5118;48.570;7.916;2023-12-20T00:52:12;5.30;99.90
10155;DHT22;5118;48.570;7.916;2023-12-20T00:54:41;5.30;99.90
10155;DHT22;5118;48.570;7.916;2023-12-20T00:57:09;5.30;99.90
10155;DHT22;5118;48.570;7.916;2023-12-20T00:59:39;5.40;99.90
10155;DHT22;5118;48.570;7.916;2023-12-20T01:02:08;5.30;99.90
10155;DHT22;5118;48.570;7.916;2023-12-20T01:04:37;5.40;99.90
10155;DHT22;5118;48.570;7.916;2023-12-20T01:07:06;5.30;99.90
10155;DHT22;5118;48.570;7.916;2023-12-20T01:09:34;5.30;99.90
10155;DHT22;5118;48.570;7.916;2023-12-20T01:12:03;5.40;99.90
10155;DHT22;5118;48.570;7.916;2023-12-20T01:14:31;5.40;99.90
10155;DHT22;5118;48.570;7.916;2023-12-20T01:17:01;5.40;99.90
10155;DHT22;5118;48.570;7.916;2023-12-20T01:19:30;5.40;99.90
10155;DHT22;5118;48.570;7.916;2023-12-20T01:21:59;5.40;99.90
10155;DHT22;5118;48.570;7.916;2023-12-20T01:24:28;5.40;99.90
10155;DHT22;5118;48.570;7.916;2023-12-20T01:26:57;5.40;99.90
10155;DHT22;5118;48.570;7.916;2023-12-20T01:29:25;5.50;99.90
10155;DHT22;5118;48.570;7.916;2023-12-20T01:31:54;5.50;99.90
10155;DHT22;5118;48.570;7.916;2023-12-20T01:34:23;5.50;99.90
10155;DHT22;5118;48.570;7.916;2023-12-20T01:36:52;5.50;99.90
10155;DHT22;5118;48.570;7.916;2023-12-20T01:39:20;5.50;99.90
10155;DHT22;5118;48.570;7.916;2023-12-20T01:41:56;5.50;99.90
10155;DHT22;5118;48.570;7.916;2023-12-20T01:44:24;5.50;99.90
10155;DHT22;5118;48.570;7.916;2023-12-20T01:46:54;5.50;99.90
10155;DHT22;5118;48.570;7.916;2023-12-20T01:49:24;5.50;99.90
10155;DHT22;5118;48.570;7.916;2023-12-20T01:51:53;5.50;99.90
10155;DHT22;5118;48.570;7.916;2023-12-20T01:54:21;5.50;99.90
10155;DHT22;5118;48.570;7.916;2023-12-20T01:56:51;5.50;99.90
10155;DHT22;5118;48.570;7.916;2023-12-20T01:59:20;5.50;99.90
10155;DHT22;5118;48.570;7.916;2023-12-20T02:04:53;5.50;99.90
10155;DHT22;5118;48.570;7.916;2023-12-20T02:07:22;5.50;99.90
10155;DHT22;5118;48.570;7.916;2023-12-20T02:09:52;5.50;99.90
10155;DHT22;5118;48.570;7.916;2023-12-20T02:12:22;5.60;99.90
10155;DHT22;5118;48.570;7.916;2023-12-20T02:14:50;5.60;99.90
10155;DHT22;5118;48.570;7.916;2023-12-20T02:17:19;5.60;99.90
10155;DHT22;5118;48.570;7.916;2023-12-20T02:19:47;5.60;99.90
10155;DHT22;5118;48.570;7.916;2023-12-20T02:22:17;5.60;99.90
10155;DHT22;5118;48.570;7.916;2023-12-20T02:24:46;5.60;99.90
10155;DHT22;5118;48.570;7.916;2023-12-20T02:27:15;5.60;99.90
10155;DHT22;5118;48.570;7.916;2023-12-20T02:29:47;5.60;99.90
10155;DHT22;5118;48.570;7.916;2023-12-20T02:32:15;5.60;99.90
10155;DHT22;5118;48.570;7.916;2023-12-20T02:34:45;5.60;99.90
10155;DHT22;5118;48.570;7.916;2023-12-20T02:37:14;5.60;99.90
10155;DHT22;5118;48.570;7.916;2023-12-20T02:39:44;5.60;99.90
10155;DHT22;5118;48.570;7.916;2023-12-20T02:42:13;5.70;99.90
10155;DHT22;5118;48.570;7.916;2023-12-20T02:44:44;5.70;99.90
10155;DHT22;5118;48.570;7.916;2023-12-20T02:47:12;5.70;99.90
10155;DHT22;5118;48.570;7.916;2023-12-20T02:49:41;5.70;99.90
10155;DHT22;5118;48.570;7.916;2023-12-20T02:52:09;5.70;99.90
10155;DHT22;5118;48.570;7.916;2023-12-20T02:54:38;5.70;99.90
10155;DHT22;5118;48.570;7.916;2023-12-20T02:57:08;5.70;99.90
10155;DHT22;5118;48.570;7.916;2023-12-20T02:59:36;5.70;99.90
10155;DHT22;5118;48.570;7.916;2023-12-20T03:02:05;5.70;99.90
10155;DHT22;5118;48.570;7.916;2023-12-20T03:04:33;5.70;99.90
10155;DHT22;5118;48.570;7.916;2023-12-20T03:07:02;5.70;99.90
10155;DHT22;5118;48.570;7.916;2023-12-20T03:09:31;5.70;99.90
10155;DHT22;5118;48.570;7.916;2023-12-20T03:12:20;5.70;99.90
10155;DHT22;5118;48.570;7.916;2023-12-20T03:14:49;5.70;99.90
10155;DHT22;5118;48.570;7.916;2023-12-20T03:17:18;5.70;99.90
10155;DHT22;5118;48.570;7.916;2023-12-20T03:19:47;5.80;99.90
10155;DHT22;5118;48.570;7.916;2023-12-20T03:22:16;5.80;99.90
10155;DHT22;5118;48.570;7.916;2023-12-20T03:24:44;5.80;99.90
10155;DHT22;5118;48.570;7.916;2023-12-20T03:27:13;5.80;99.90
10155;DHT22;5118;48.570;7.916;2023-12-20T03:29:42;5.80;99.90
10155;DHT22;5118;48.570;7.916;2023-12-20T03:32:11;5.80;99.90
10155;DHT22;5118;48.570;7.916;2023-12-20T03:34:39;5.80;99.90
10155;DHT22;5118;48.570;7.916;2023-12-20T03:37:08;5.90;99.90
10155;DHT22;5118;48.570;7.916;2023-12-20T03:39:37;5.90;99.90
10155;DHT22;5118;48.570;7.916;2023-12-20T03:42:05;5.90;99.90
10155;DHT22;5118;48.570;7.916;2023-12-20T03:44:34;5.90;99.90
10155;DHT22;5118;48.570;7.916;2023-12-20T03:47:04;5.90;99.90
10155;DHT22;5118;48.570;7.916;2023-12-20T03:49:32;5.90;99.90
10155;DHT22;5118;48.570;7.916;2023-12-20T03:52:04;5.90;99.90
10155;DHT22;5118;48.570;7.916;2023-12-20T03:54:33;5.90;99.90
10155;DHT22;5118;48.570;7.916;2023-12-20T03:57:02;5.90;99.90
10155;DHT22;5118;48.570;7.916;2023-12-20T03:59:34;5.90;99.90
10155;DHT22;5118;48.570;7.916;2023-12-20T04:02:04;5.90;99.90
10155;DHT22;5118;48.570;7.916;2023-12-20T04:04:32;5.90;99.90
10155;DHT22;5118;48.570;7.916;2023-12-20T04:07:01;6.00;99.90
10155;DHT22;5118;48.570;7.916;2023-12-20T04:09:30;6.00;99.90
10155;DHT22;5118;48.570;7.916;2023-12-20T04:11:58;5.90;99.90
10155;DHT22;5118;48.570;7.916;2023-12-20T04:14:27;6.00;99.90
10155;DHT22;5118;48.570;7.916;2023-12-20T04:16:55;6.00;99.90
10155;DHT22;5118;48.570;7.916;2023-12-20T04:19:25;6.00;99.90
10155;DHT22;5118;48.570;7.916;2023-12-20T04:21:53;6.00;99.90
10155;DHT22;5118;48.570;7.916;2023-12-20T04:24:22;6.00;99.90
10155;DHT22;5118;48.570;7.916;2023-12-20T04:26:50;6.00;99.90
10155;DHT22;5118;48.570;7.916;2023-12-20T04:29:19;6.00;99.90
10155;DHT22;5118;48.570;7.916;2023-12-20T04:31:47;6.00;99.90
10155;DHT22;5118;48.570;7.916;2023-12-20T04:34:17;6.00;99.90
10155;DHT22;5118;48.570;7.916;2023-12-20T04:36:47;6.10;99.90
10155;DHT22;5118;48.570;7.916;2023-12-20T04:39:15;6.00;99.90
10155;DHT22;5118;48.570;7.916;2023-12-20T04:41:43;6.10;99.90
10155;DHT22;5118;48.570;7.916;2023-12-20T04:44:12;6.10;99.90
10155;DHT22;5118;48.570;7.916;2023-12-20T04:46:40;6.10;99.90
10155;DHT22;5118;48.570;7.916;2023-12-20T04:49:08;6.10;99.90
10155;DHT22;5118;48.570;7.916;2023-12-20T04:51:37;6.10;99.90
10155;DHT22;5118;48.570;7.916;2023-12-20T04:54:07;6.10;99.90
10155;DHT22;5118;48.570;7.916;2023-12-20T04:56:36;6.10;99.90
10155;DHT22;5118;48.570;7.916;2023-12-20T04:59:05;6.10;99.90
10155;DHT22;5118;48.570;7.916;2023-12-20T05:01:33;6.10;99.90
10155;DHT22;5118;48.570;7.916;2023-12-20T05:04:02;6.10;99.90
10155;DHT22;5118;48.570;7.916;2023-12-20T05:06:31;6.10;99.90
10155;DHT22;5118;48.570;7.916;2023-12-20T05:08:59;6.10;99.90
10155;DHT22;5118;48.570;7.916;2023-12-20T05:11:29;6.10;99.90
10155;DHT22;5118;48.570;7.916;2023-12-20T05:13:57;6.10;99.90
10155;DHT22;5118;48.570;7.916;2023-12-20T05:16:26;6.10;99.90
10155;DHT22;5118;48.570;7.916;2023-12-20T05:18:54;6.10;99.90
10155;DHT22;5118;48.570;7.916;2023-12-20T05:21:23;6.10;99.90
10155;DHT22;5118;48.570;7.916;2023-12-20T05:23:51;6.20;99.90
10155;DHT22;5118;48.570;7.916;2023-12-20T05:26:20;6.20;99.90
10155;DHT22;5118;48.570;7.916;2023-12-20T05:28:49;6.20;99.90
10155;DHT22;5118;48.570;7.916;2023-12-20T05:31:18;6.20;99.90
10155;DHT22;5118;48.570;7.916;2023-12-20T05:33:46;6.20;99.90
10155;DHT22;5118;48.570;7.916;2023-12-20T05:36:15;6.20;99.90
10155;DHT22;5118;48.570;7.916;2023-12-20T05:38:43;6.20;99.90
10155;DHT22;5118;48.570;7.916;2023-12-20T05:41:12;6.20;99.90
10155;DHT22;5118;48.570;7.916;2023-12-20T05:43:40;6.20;99.90
10155;DHT22;5118;48.570;7.916;2023-12-20T05:46:11;6.20;99.90
10155;DHT22;5118;48.570;7.916;2023-12-20T05:48:40;6.20;99.90
10155;DHT22;5118;48.570;7.916;2023-12-20T05:51:11;6.20;99.90
10155;DHT22;5118;48.570;7.916;2023-12-20T05:53:40;6.20;99.90
10155;DHT22;5118;48.570;7.916;2023-12-20T05:56:09;6.20;99.90
10155;DHT22;5118;48.570;7.916;2023-12-20T05:58:38;6.20;99.90
10155;DHT22;5118;48.570;7.916;2023-12-20T06:01:07;6.20;99.90
10155;DHT22;5118;48.570;7.916;2023-12-20T06:03:41;6.20;99.90
10155;DHT22;5118;48.570;7.916;2023-12-20T06:06:10;6.20;99.90
10155;DHT22;5118;48.570;7.916;2023-12-20T06:08:43;6.20;99.90
10155;DHT22;5118;48.570;7.916;2023-12-20T06:11:11;6.20;99.90
10155;DHT22;5118;48.570;7.916;2023-12-20T06:13:43;6.20;99.90
10155;DHT22;5118;48.570;7.916;2023-12-20T06:16:12;6.20;99.90
10155;DHT22;5118;48.570;7.916;2023-12-20T06:18:42;6.20;99.90
10155;DHT22;5118;48.570;7.916;2023-12-20T06:21:10;6.20;99.90
10155;DHT22;5118;48.570;7.916;2023-12-20T06:23:40;6.20;99.90
10155;DHT22;5118;48.570;7.916;2023-12-20T06:26:08;6.20;99.90
10155;DHT22;5118;48.570;7.916;2023-12-20T06:28:37;6.20;99.90
10155;DHT22;5118;48.570;7.916;2023-12-20T06:31:08;6.30;99.90
10155;DHT22;5118;48.570;7.916;2023-12-20T06:33:36;6.30;99.90
10155;DHT22;5118;48.570;7.916;2023-12-20T06:36:11;6.30;99.90
10155;DHT22;5118;48.570;7.916;2023-12-20T06:38:40;6.30;99.90
10155;DHT22;5118;48.570;7.916;2023-12-20T06:41:13;6.30;99.90
10155;DHT22;5118;48.570;7.916;2023-12-20T06:43:41;6.30;99.90
10155;DHT22;5118;48.570;7.916;2023-12-20T06:46:16;6.30;99.90
10155;DHT22;5118;48.570;7.916;2023-12-20T06:48:45;6.30;99.90
10155;DHT22;5118;48.570;7.916;2023-12-20T06:51:16;6.30;99.90
10155;DHT22;5118;48.570;7.916;2023-12-20T06:53:46;6.30;99.90
10155;DHT22;5118;48.570;7.916;2023-12-20T06:56:15;6.30;99.90
10155;DHT22;5118;48.570;7.916;2023-12-20T06:58:46;6.30;99.90
10155;DHT22;5118;48.570;7.916;2023-12-20T07:01:15;6.30;99.90
10155;DHT22;5118;48.570;7.916;2023-12-20T07:03:45;6.30;99.90
10155;DHT22;5118;48.570;7.916;2023-12-20T07:06:15;6.30;99.90
10155;DHT22;5118;48.570;7.916;2023-12-20T07:08:44;6.30;99.90
10155;DHT22;5118;48.570;7.916;2023-12-20T07:11:15;6.30;99.90
10155;DHT22;5118;48.570;7.916;2023-12-20T07:13:44;6.30;99.90
10155;DHT22;5118;48.570;7.916;2023-12-20T07:16:12;6.30;99.90
10155;DHT22;5118;48.570;7.916;2023-12-20T07:18:41;6.30;99.90
10155;DHT22;5118;48.570;7.916;2023-12-20T07:21:09;6.30;99.90
10155;DHT22;5118;48.570;7.916;2023-12-20T07:23:39;6.30;99.90
10155;DHT22;5118;48.570;7.916;2023-12-20T07:26:08;6.30;99.90
10155;DHT22;5118;48.570;7.916;2023-12-20T07:28:38;6.30;99.90
10155;DHT22;5118;48.570;7.916;2023-12-20T07:31:07;6.30;99.90
10155;DHT22;5118;48.570;7.916;2023-12-20T07:33:39;6.30;99.90
10155;DHT22;5118;48.570;7.916;2023-12-20T07:36:07;6.30;99.90
10155;DHT22;5118;48.570;7.916;2023-12-20T07:38:36;6.20;99.90
10155;DHT22;5118;48.570;7.916;2023-12-20T07:41:06;6.20;99.90
10155;DHT22;5118;48.570;7.916;2023-12-20T07:43:34;6.20;99.90
10155;DHT22;5118;48.570;7.916;2023-12-20T07:46:07;6.30;99.90
10155;DHT22;5118;48.570;7.916;2023-12-20T07:48:35;6.30;99.90
10155;DHT22;5118;48.570;7.916;2023-12-20T07:51:04;6.30;99.90
10155;DHT22;5118;48.570;7.916;2023-12-20T07:53:35;6.30;99.90
10155;DHT22;5118;48.570;7.916;2023-12-20T07:56:14;6.30;99.90
10155;DHT22;5118;48.570;7.916;2023-12-20T07:58:43;6.30;99.90
10155;DHT22;5118;48.570;7.916;2023-12-20T08:01:19;6.30;99.90
10155;DHT22;5118;48.570;7.916;2023-12-20T08:03:49;6.40;99.90
10155;DHT22;5118;48.570;7.916;2023-12-20T08:06:19;6.40;99.90
10155;DHT22;5118;48.570;7.916;2023-12-20T08:08:48;6.50;99.90
10155;DHT22;5118;48.570;7.916;2023-12-20T08:11:29;6.50;99.90
10155;DHT22;5118;48.570;7.916;2023-12-20T08:13:58;6.40;99.90
10155;DHT22;5118;48.570;7.916;2023-12-20T08:16:26;6.40;99.90
10155;DHT22;5118;48.570;7.916;2023-12-20T08:18:55;6.40;99.90
10155;DHT22;5118;48.570;7.916;2023-12-20T08:21:23;6.30;99.90
10155;DHT22;5118;48.570;7.916;2023-12-20T08:23:52;6.30;99.90
10155;DHT22;5118;48.570;7.916;2023-12-20T08:26:20;6.30;99.90
10155;DHT22;5118;48.570;7.916;2023-12-20T08:28:53;6.20;99.90
10155;DHT22;5118;48.570;7.916;2023-12-20T08:31:26;6.20;99.90
10155;DHT22;5118;48.570;7.916;2023-12-20T08:33:54;6.10;99.90
10155;DHT22;5118;48.570;7.916;2023-12-20T08:36:23;6.10;99.90
10155;DHT22;5118;48.570;7.916;2023-12-20T08:38:52;6.10;99.90
10155;DHT22;5118;48.570;7.916;2023-12-20T08:41:21;6.00;99.90
10155;DHT22;5118;48.570;7.916;2023-12-20T08:43:49;6.00;99.90
10155;DHT22;5118;48.570;7.916;2023-12-20T08:46:19;6.00;99.90
10155;DHT22;5118;48.570;7.916;2023-12-20T08:48:48;6.00;99.90
10155;DHT22;5118;48.570;7.916;2023-12-20T08:51:17;6.00;99.90
10155;DHT22;5118;48.570;7.916;2023-12-20T08:53:46;6.10;99.90
10155;DHT22;5118;48.570;7.916;2023-12-20T08:56:15;6.10;99.90
10155;DHT22;5118;48.570;7.916;2023-12-20T08:58:46;6.20;99.90
10155;DHT22;5118;48.570;7.916;2023-12-20T09:01:14;6.30;99.90
10155;DHT22;5118;48.570;7.916;2023-12-20T09:03:44;6.30;99.90
10155;DHT22;5118;48.570;7.916;2023-12-20T09:06:13;6.40;99.90
10155;DHT22;5118;48.570;7.916;2023-12-20T09:08:42;6.40;99.90
10155;DHT22;5118;48.570;7.916;2023-12-20T09:11:11;6.50;99.90
10155;DHT22;5118;48.570;7.916;2023-12-20T09:13:40;6.50;99.90
10155;DHT22;5118;48.570;7.916;2023-12-20T09:16:09;6.60;99.90
10155;DHT22;5118;48.570;7.916;2023-12-20T09:18:38;6.60;99.90
10155;DHT22;5118;48.570;7.916;2023-12-20T09:21:07;6.60;99.90
10155;DHT22;5118;48.570;7.916;2023-12-20T09:23:37;6.60;99.90
10155;DHT22;5118;48.570;7.916;2023-12-20T09:26:06;6.60;99.90
10155;DHT22;5118;48.570;7.916;2023-12-20T09:28:34;6.60;99.90
10155;DHT22;5118;48.570;7.916;2023-12-20T09:31:04;6.60;99.90
10155;DHT22;5118;48.570;7.916;2023-12-20T09:33:34;6.50;99.90
10155;DHT22;5118;48.570;7.916;2023-12-20T09:36:03;6.60;99.90
10155;DHT22;5118;48.570;7.916;2023-12-20T09:38:34;6.60;99.90
10155;DHT22;5118;48.570;7.916;2023-12-20T09:41:03;6.60;99.90
10155;DHT22;5118;48.570;7.916;2023-12-20T09:43:36;6.60;99.90
10155;DHT22;5118;48.570;7.916;2023-12-20T09:46:08;6.70;99.90
10155;DHT22;5118;48.570;7.916;2023-12-20T09:48:41;6.70;99.90
10155;DHT22;5118;48.570;7.916;2023-12-20T09:51:09;6.70;99.90
10155;DHT22;5118;48.570;7.916;2023-12-20T09:53:40;6.80;99.90
10155;DHT22;5118;48.570;7.916;2023-12-20T09:56:10;7.00;99.90
10155;DHT22;5118;48.570;7.916;2023-12-20T09:58:39;7.00;99.90
10155;DHT22;5118;48.570;7.916;2023-12-20T10:01:08;7.00;99.90
10155;DHT22;5118;48.570;7.916;2023-12-20T10:03:39;7.20;99.90
10155;DHT22;5118;48.570;7.916;2023-12-20T10:06:08;7.40;99.90
10155;DHT22;5118;48.570;7.916;2023-12-20T10:08:40;7.50;99.90
10155;DHT22;5118;48.570;7.916;2023-12-20T10:11:09;7.70;99.90
10155;DHT22;5118;48.570;7.916;2023-12-20T10:13:39;7.80;99.90
10155;DHT22;5118;48.570;7.916;2023-12-20T10:16:08;8.10;99.90
10155;DHT22;5118;48.570;7.916;2023-12-20T10:18:37;8.20;99.90
10155;DHT22;5118;48.570;7.916;2023-12-20T10:21:06;8.40;99.90
10155;DHT22;5118;48.570;7.916;2023-12-20T10:23:37;8.50;99.90
10155;DHT22;5118;48.570;7.916;2023-12-20T10:26:08;8.70;99.90
10155;DHT22;5118;48.570;7.916;2023-12-20T10:28:37;8.70;99.90
10155;DHT22;5118;48.570;7.916;2023-12-20T10:31:06;8.60;99.90
10155;DHT22;5118;48.570;7.916;2023-12-20T10:33:35;8.30;99.90
10155;DHT22;5118;48.570;7.916;2023-12-20T10:36:04;8.10;99.90
10155;DHT22;5118;48.570;7.916;2023-12-20T10:38:34;8.10;99.90
10155;DHT22;5118;48.570;7.916;2023-12-20T10:41:05;8.00;99.90
10155;DHT22;5118;48.570;7.916;2023-12-20T10:43:37;8.00;99.90
10155;DHT22;5118;48.570;7.916;2023-12-20T10:46:06;8.00;99.90
10155;DHT22;5118;48.570;7.916;2023-12-20T10:48:35;8.00;99.90
10155;DHT22;5118;48.570;7.916;2023-12-20T10:51:05;8.00;99.90
10155;DHT22;5118;48.570;7.916;2023-12-20T10:53:35;7.90;99.90
10155;DHT22;5118;48.570;7.916;2023-12-20T10:56:06;8.00;99.90
10155;DHT22;5118;48.570;7.916;2023-12-20T10:58:39;8.10;99.90
10155;DHT22;5118;48.570;7.916;2023-12-20T11:01:11;8.20;99.90
10155;DHT22;5118;48.570;7.916;2023-12-20T11:03:44;8.20;99.90
10155;DHT22;5118;48.570;7.916;2023-12-20T11:06:26;8.10;99.90
10155;DHT22;5118;48.570;7.916;2023-12-20T11:09:01;8.20;99.90
10155;DHT22;5118;48.570;7.916;2023-12-20T11:11:42;8.20;99.90
10155;DHT22;5118;48.570;7.916;2023-12-20T11:14:20;8.20;99.90
10155;DHT22;5118;48.570;7.916;2023-12-20T11:16:50;8.10;99.90
10155;DHT22;5118;48.570;7.916;2023-12-20T11:19:21;8.00;99.90
10155;DHT22;5118;48.570;7.916;2023-12-20T11:21:50;7.90;99.90
10155;DHT22;5118;48.570;7.916;2023-12-20T11:24:22;7.80;99.90
10155;DHT22;5118;48.570;7.916;2023-12-20T11:26:55;7.80;99.90
10155;DHT22;5118;48.570;7.916;2023-12-20T11:29:33;7.80;99.90
10155;DHT22;5118;48.570;7.916;2023-12-20T11:32:04;7.80;99.90
10155;DHT22;5118;48.570;7.916;2023-12-20T11:34:54;7.70;99.90
10155;DHT22;5118;48.570;7.916;2023-12-20T11:37:29;7.70;99.90
10155;DHT22;5118;48.570;7.916;2023-12-20T11:40:01;7.70;99.90
10155;DHT22;5118;48.570;7.916;2023-12-20T11:42:33;7.90;99.90
10155;DHT22;5118;48.570;7.916;2023-12-20T11:45:04;8.10;99.90
10155;DHT22;5118;48.570;7.916;2023-12-20T11:47:33;8.30;99.90
10155;DHT22;5118;48.570;7.916;2023-12-20T11:50:02;8.50;99.90
10155;DHT22;5118;48.570;7.916;2023-12-20T11:52:32;8.70;99.90
10155;DHT22;5118;48.570;7.916;2023-12-20T11:55:00;8.80;99.90
10155;DHT22;5118;48.570;7.916;2023-12-20T11:57:31;8.90;99.90
10155;DHT22;5118;48.570;7.916;2023-12-20T11:59:59;9.00;99.90
10155;DHT22;5118;48.570;7.916;2023-12-20T12:02:39;9.00;99.90
10155;DHT22;5118;48.570;7.916;2023-12-20T12:05:08;9.00;99.90
10155;DHT22;5118;48.570;7.916;2023-12-20T12:07:37;9.00;99.90
10155;DHT22;5118;48.570;7.916;2023-12-20T12:10:07;8.90;99.90
10155;DHT22;5118;48.570;7.916;2023-12-20T12:12:36;8.80;99.90
10155;DHT22;5118;48.570;7.916;2023-12-20T12:15:06;8.70;99.90
10155;DHT22;5118;48.570;7.916;2023-12-20T12:17:35;8.50;99.90
10155;DHT22;5118;48.570;7.916;2023-12-20T12:20:07;8.40;99.90
10155;DHT22;5118;48.570;7.916;2023-12-20T12:22:37;8.30;99.90
10155;DHT22;5118;48.570;7.916;2023-12-20T12:25:14;8.30;99.90
10155;DHT22;5118;48.570;7.916;2023-12-20T12:27:43;8.20;99.90
10155;DHT22;5118;48.570;7.916;2023-12-20T12:30:12;8.20;99.90
10155;DHT22;5118;48.570;7.916;2023-12-20T12:32:40;8.30;99.90
10155;DHT22;5118;48.570;7.916;2023-12-20T12:35:11;8.30;99.90
10155;DHT22;5118;48.570;7.916;2023-12-20T12:37:40;8.30;99.90
10155;DHT22;5118;48.570;7.916;2023-12-20T12:40:10;8.30;99.90
10155;DHT22;5118;48.570;7.916;2023-12-20T12:42:41;8.30;99.90
10155;DHT22;5118;48.570;7.916;2023-12-20T12:45:11;8.30;99.90
10155;DHT22;5118;48.570;7.916;2023-12-20T12:47:40;8.30;99.90
10155;DHT22;5118;48.570;7.916;2023-12-20T12:50:09;8.30;99.90
10155;DHT22;5118;48.570;7.916;2023-12-20T12:52:39;8.40;99.90
10155;DHT22;5118;48.570;7.916;2023-12-20T12:55:08;8.40;99.90
10155;DHT22;5118;48.570;7.916;2023-12-20T12:57:36;8.50;99.90
10155;DHT22;5118;48.570;7.916;2023-12-20T13:00:06;8.60;99.90
10155;DHT22;5118;48.570;7.916;2023-12-20T13:02:36;8.60;99.90
10155;DHT22;5118;48.570;7.916;2023-12-20T13:05:05;8.50;99.90
10155;DHT22;5118;48.570;7.916;2023-12-20T13:07:35;8.50;99.90
10155;DHT22;5118;48.570;7.916;2023-12-20T13:10:07;8.40;99.90
10155;DHT22;5118;48.570;7.916;2023-12-20T13:12:35;8.40;99.90
10155;DHT22;5118;48.570;7.916;2023-12-20T13:15:04;8.30;99.90
10155;DHT22;5118;48.570;7.916;2023-12-20T13:17:37;8.30;99.90
10155;DHT22;5118;48.570;7.916;2023-12-20T13:20:07;8.20;99.90
10155;DHT22;5118;48.570;7.916;2023-12-20T13:22:35;8.10;99.90
10155;DHT22;5118;48.570;7.916;2023-12-20T13:25:06;8.10;99.90
10155;DHT22;5118;48.570;7.916;2023-12-20T13:27:35;8.00;99.90
10155;DHT22;5118;48.570;7.916;2023-12-20T13:30:06;8.00;99.90
10155;DHT22;5118;48.570;7.916;2023-12-20T13:32:35;8.00;99.90
10155;DHT22;5118;48.570;7.916;2023-12-20T13:35:04;7.90;99.90
10155;DHT22;5118;48.570;7.916;2023-12-20T13:37:33;7.90;99.90
10155;DHT22;5118;48.570;7.916;2023-12-20T13:40:01;7.80;99.90
10155;DHT22;5118;48.570;7.916;2023-12-20T13:42:32;7.80;99.90
10155;DHT22;5118;48.570;7.916;2023-12-20T13:45:00;7.80;99.90
10155;DHT22;5118;48.570;7.916;2023-12-20T13:47:29;7.80;99.90
10155;DHT22;5118;48.570;7.916;2023-12-20T13:49:57;7.70;99.90
10155;DHT22;5118;48.570;7.916;2023-12-20T13:52:26;7.70;99.90
10155;DHT22;5118;48.570;7.916;2023-12-20T13:54:55;7.70;99.90
10155;DHT22;5118;48.570;7.916;2023-12-20T13:57:23;7.70;99.90
10155;DHT22;5118;48.570;7.916;2023-12-20T14:00:15;7.70;99.90
10155;DHT22;5118;48.570;7.916;2023-12-20T14:02:43;7.70;99.90
10155;DHT22;5118;48.570;7.916;2023-12-20T14:05:13;7.60;99.90
10155;DHT22;5118;48.570;7.916;2023-12-20T14:07:45;7.60;99.90
10155;DHT22;5118;48.570;7.916;2023-12-20T14:10:14;7.60;99.90
10155;DHT22;5118;48.570;7.916;2023-12-20T14:12:43;7.60;99.90
10155;DHT22;5118;48.570;7.916;2023-12-20T14:15:13;7.60;99.90
10155;DHT22;5118;48.570;7.916;2023-12-20T14:17:42;7.50;99.90
10155;DHT22;5118;48.570;7.916;2023-12-20T14:20:11;7.50;99.90
10155;DHT22;5118;48.570;7.916;2023-12-20T14:22:40;7.50;99.90
10155;DHT22;5118;48.570;7.916;2023-12-20T14:25:12;7.50;99.90
10155;DHT22;5118;48.570;7.916;2023-12-20T14:27:41;7.50;99.90
10155;DHT22;5118;48.570;7.916;2023-12-20T14:30:14;7.50;99.90
10155;DHT22;5118;48.570;7.916;2023-12-20T14:32:44;7.40;99.90
10155;DHT22;5118;48.570;7.916;2023-12-20T14:35:13;7.40;99.90
10155;DHT22;5118;48.570;7.916;2023-12-20T14:37:42;7.30;99.90
10155;DHT22;5118;48.570;7.916;2023-12-20T14:40:12;7.30;99.90
10155;DHT22;5118;48.570;7.916;2023-12-20T14:42:44;7.30;99.90
10155;DHT22;5118;48.570;7.916;2023-12-20T14:45:15;7.30;99.90
10155;DHT22;5118;48.570;7.916;2023-12-20T14:47:44;7.30;99.90
10155;DHT22;5118;48.570;7.916;2023-12-20T14:50:15;7.30;99.90
10155;DHT22;5118;48.570;7.916;2023-12-20T14:52:48;7.30;99.90
10155;DHT22;5118;48.570;7.916;2023-12-20T14:55:16;7.20;99.90
10155;DHT22;5118;48.570;7.916;2023-12-20T14:57:45;7.20;99.90
10155;DHT22;5118;48.570;7.916;2023-12-20T15:00:16;7.20;99.90
10155;DHT22;5118;48.570;7.916;2023-12-20T15:02:45;7.20;99.90
10155;DHT22;5118;48.570;7.916;2023-12-20T15:05:14;7.20;99.90
10155;DHT22;5118;48.570;7.916;2023-12-20T15:07:43;7.10;99.90
10155;DHT22;5118;48.570;7.916;2023-12-20T15:10:12;7.10;99.90
10155;DHT22;5118;48.570;7.916;2023-12-20T15:12:41;7.10;99.90
10155;DHT22;5118;48.570;7.916;2023-12-20T15:15:10;7.00;99.90
10155;DHT22;5118;48.570;7.916;2023-12-20T15:17:40;7.00;99.90
10155;DHT22;5118;48.570;7.916;2023-12-20T15:20:09;6.90;99.90
10155;DHT22;5118;48.570;7.916;2023-12-20T15:22:38;6.90;99.90
10155;DHT22;5118;48.570;7.916;2023-12-20T15:25:08;6.90;99.90
10155;DHT22;5118;48.570;7.916;2023-12-20T15:27:37;6.80;99.90
10155;DHT22;5118;48.570;7.916;2023-12-20T15:30:07;6.80;99.90
10155;DHT22;5118;48.570;7.916;2023-12-20T15:32:37;6.70;99.90
10155;DHT22;5118;48.570;7.916;2023-12-20T15:35:09;6.70;99.90
10155;DHT22;5118;48.570;7.916;2023-12-20T15:37:38;6.50;99.90
10155;DHT22;5118;48.570;7.916;2023-12-20T15:40:08;6.50;99.90
10155;DHT22;5118;48.570;7.916;2023-12-20T15:42:38;6.40;99.90
10155;DHT22;5118;48.570;7.916;2023-12-20T15:45:08;6.30;99.90
10155;DHT22;5118;48.570;7.916;2023-12-20T15:47:36;6.30;99.90
10155;DHT22;5118;48.570;7.916;2023-12-20T15:50:06;6.30;99.90
10155;DHT22;5118;48.570;7.916;2023-12-20T15:52:37;6.20;99.90
10155;DHT22;5118;48.570;7.916;2023-12-20T15:55:07;6.20;99.90
10155;DHT22;5118;48.570;7.916;2023-12-20T15:57:36;6.20;99.90
10155;DHT22;5118;48.570;7.916;2023-12-20T16:00:19;6.10;99.90
10155;DHT22;5118;48.570;7.916;2023-12-20T16:02:48;6.10;99.90
10155;DHT22;5118;48.570;7.916;2023-12-20T16:05:17;6.00;99.90
10155;DHT22;5118;48.570;7.916;2023-12-20T16:07:47;6.00;99.90
10155;DHT22;5118;48.570;7.916;2023-12-20T16:10:16;6.00;99.90
10155;DHT22;5118;48.570;7.916;2023-12-20T16:12:45;5.90;99.90
10155;DHT22;5118;48.570;7.916;2023-12-20T16:15:13;5.90;99.90
10155;DHT22;5118;48.570;7.916;2023-12-20T16:17:42;5.80;99.90
10155;DHT22;5118;48.570;7.916;2023-12-20T16:20:13;5.80;99.90